Terminal Aerodrome Forecast
Issued by NWS

Home | Current Version | Previous Version | Text Only | Print | Product List | Glossary On
Versions: 1 2 3 4 5 6 7 8 9 10 11 12 13 14 15 16 17
798
FTUS45 KMSO 221120
TAFSMN
TAF
KSMN 221120Z 2212/2312 VRB03KT P6SM VCSH BKN060
     FM221500 VRB04KT 4SM -SN BR SCT020 OVC040
     FM230000 34005KT P6SM VCSH SCT030 BKN050
     FM230300 VRB02KT P6SM SCT002 BKN060=

USA.gov is the U.S. government's official web portal to all federal, state and local government web resources and services.